createdAt,value
2023-05-17T00:01:00.960Z,14.10
2023-05-17T00:03:28.337Z,14.10
2023-05-17T00:05:55.947Z,14.10
2023-05-17T00:08:23.497Z,14.10
2023-05-17T00:10:50.803Z,14.00
2023-05-17T00:13:20.790Z,14.00
2023-05-17T00:15:51.234Z,14.10
2023-05-17T00:18:19.300Z,14.20
2023-05-17T00:20:46.812Z,13.90
2023-05-17T00:23:14.146Z,13.90
2023-05-17T00:25:41.441Z,13.90
2023-05-17T00:28:08.736Z,13.90
2023-05-17T00:30:36.044Z,13.90
2023-05-17T00:33:04.326Z,13.90
2023-05-17T00:35:31.704Z,13.90
2023-05-17T00:37:59.156Z,13.80
2023-05-17T00:40:26.602Z,13.80
2023-05-17T00:42:53.988Z,13.80
2023-05-17T00:45:23.502Z,13.80
2023-05-17T00:47:50.992Z,13.80
2023-05-17T00:50:18.549Z,13.70
2023-05-17T00:52:46.726Z,13.70
2023-05-17T00:55:14.304Z,13.70
2023-05-17T00:57:43.798Z,13.60
2023-05-17T01:00:11.703Z,13.60
2023-05-17T01:02:39.161Z,13.60
2023-05-17T01:05:07.391Z,13.60
2023-05-17T01:07:36.054Z,13.50
2023-05-17T01:10:03.513Z,13.60
2023-05-17T01:13:11.247Z,13.50
2023-05-17T01:15:47.151Z,13.50
2023-05-17T01:18:53.418Z,13.50
2023-05-17T01:22:00.878Z,13.50
2023-05-17T01:25:07.636Z,13.50
2023-05-17T01:27:38.714Z,13.40
2023-05-17T01:30:07.856Z,13.40
2023-05-17T01:32:35.531Z,13.40
2023-05-17T01:35:05.501Z,13.40
2023-05-17T01:42:30.965Z,13.20
2023-05-17T01:45:07.584Z,13.30
2023-05-17T01:47:47.323Z,13.20
2023-05-17T01:50:17.485Z,13.20
2023-05-17T01:52:59.351Z,13.20
2023-05-17T01:55:44.278Z,13.10
2023-05-17T01:58:12.903Z,13.10
2023-05-17T02:00:42.847Z,13.10
2023-05-17T02:03:20.230Z,13.10
2023-05-17T02:05:51.663Z,13.10
2023-05-17T02:08:19.185Z,13.10
2023-05-17T02:10:46.490Z,13.10
2023-05-17T02:13:13.783Z,13.00
2023-05-17T02:15:41.127Z,13.00
2023-05-17T02:18:11.628Z,13.00
2023-05-17T02:20:39.884Z,13.00
2023-05-17T02:23:08.658Z,12.90
2023-05-17T02:25:35.959Z,12.80
2023-05-17T02:28:03.310Z,12.80
2023-05-17T02:30:31.085Z,12.80
2023-05-17T02:32:58.489Z,12.70
2023-05-17T02:35:26.035Z,12.70
2023-05-17T02:37:53.496Z,12.70
2023-05-17T02:40:20.866Z,12.60
2023-05-17T02:42:48.228Z,12.60
2023-05-17T02:45:15.584Z,12.60
2023-05-17T02:47:43.070Z,12.60
2023-05-17T02:50:10.863Z,12.50
2023-05-17T02:52:38.587Z,12.50
2023-05-17T02:55:07.681Z,12.40
2023-05-17T02:57:35.073Z,12.40
2023-05-17T03:00:03.383Z,12.40
2023-05-17T03:02:31.267Z,12.10
2023-05-17T03:04:58.787Z,12.30
2023-05-17T03:07:26.154Z,12.30
2023-05-17T03:09:54.136Z,12.30
2023-05-17T03:12:21.512Z,12.20
2023-05-17T03:14:48.914Z,12.20
2023-05-17T03:17:16.670Z,12.20
2023-05-17T03:19:44.172Z,12.10
2023-05-17T03:22:11.486Z,12.10
2023-05-17T03:24:39.236Z,12.10
2023-05-17T03:27:06.709Z,12.00
2023-05-17T03:29:36.133Z,12.00
2023-05-17T03:32:03.557Z,12.00
2023-05-17T03:34:31.117Z,11.90
2023-05-17T03:36:58.438Z,11.90
2023-05-17T03:39:25.926Z,11.80
2023-05-17T03:41:53.940Z,11.80
2023-05-17T03:44:22.535Z,11.80
2023-05-17T03:46:50.363Z,11.70
2023-05-17T03:49:18.670Z,11.70
2023-05-17T03:51:46.577Z,11.70
2023-05-17T03:54:13.988Z,11.70
2023-05-17T03:56:43.580Z,11.60
2023-05-17T03:59:10.952Z,11.60
2023-05-17T04:01:38.463Z,11.60
2023-05-17T04:04:05.988Z,11.60
2023-05-17T04:06:33.455Z,11.60
2023-05-17T04:09:01.098Z,11.50
2023-05-17T04:11:29.165Z,11.50
2023-05-17T04:13:57.918Z,11.50
2023-05-17T04:16:25.740Z,11.50
2023-05-17T04:18:53.753Z,11.50
2023-05-17T04:21:21.384Z,11.50
2023-05-17T04:23:50.441Z,11.50
2023-05-17T04:26:18.436Z,11.50
2023-05-17T04:28:45.817Z,11.50
2023-05-17T04:31:17.864Z,11.50
2023-05-17T04:33:46.081Z,11.50
2023-05-17T04:36:13.740Z,11.50
2023-05-17T04:38:42.103Z,11.50
2023-05-17T04:41:12.537Z,11.50
2023-05-17T04:43:41.936Z,11.60
2023-05-17T05:00:36.984Z,11.70
2023-05-17T05:38:48.969Z,13.80
2023-05-17T05:41:18.326Z,14.70
2023-05-17T05:43:46.190Z,14.30
2023-05-17T05:46:15.781Z,14.30
2023-05-17T05:48:44.532Z,14.60
2023-05-17T05:51:12.197Z,15.10
2023-05-17T05:53:42.459Z,15.00
2023-05-17T05:56:09.992Z,15.30
2023-05-17T05:58:37.499Z,15.70
2023-05-17T06:01:06.508Z,16.50
2023-05-17T06:03:34.175Z,17.00
2023-05-17T06:06:01.809Z,17.00
2023-05-17T06:08:29.311Z,17.20
2023-05-17T06:10:56.834Z,17.40
2023-05-17T06:13:24.184Z,17.70
2023-05-17T06:15:51.632Z,17.70
2023-05-17T06:18:19.398Z,17.70
2023-05-17T06:20:47.043Z,18.10
2023-05-17T06:23:15.248Z,17.90
2023-05-17T06:25:42.856Z,17.80
2023-05-17T06:28:10.611Z,18.30
2023-05-17T06:30:38.519Z,18.20
2023-05-17T06:33:07.839Z,17.70
2023-05-17T06:36:26.513Z,17.70
2023-05-17T06:38:55.994Z,17.80
2023-05-17T06:41:24.951Z,18.20
2023-05-17T06:43:53.605Z,18.40
2023-05-17T06:46:23.615Z,18.20
2023-05-17T06:48:55.958Z,18.50
2023-05-17T06:51:28.242Z,18.90
2023-05-17T06:53:56.528Z,19.40
2023-05-17T06:56:26.002Z,20.00
2023-05-17T06:58:54.187Z,19.90
2023-05-17T07:01:22.579Z,20.20
2023-05-17T07:03:50.742Z,20.60
2023-05-17T07:06:18.917Z,20.90
2023-05-17T07:08:46.830Z,21.30
2023-05-17T07:11:14.295Z,21.60
2023-05-17T07:13:42.993Z,22.00
2023-05-17T07:16:10.422Z,22.20
2023-05-17T07:18:37.908Z,22.40
2023-05-17T07:21:05.449Z,22.70
2023-05-17T07:23:33.079Z,23.10
2023-05-17T07:26:00.817Z,23.00
2023-05-17T07:28:28.225Z,23.30
2023-05-17T07:30:56.617Z,23.10
2023-05-17T07:33:24.581Z,23.10
2023-05-17T07:35:52.057Z,23.10
2023-05-17T07:38:19.738Z,23.20
2023-05-17T07:40:47.244Z,22.90
2023-05-17T07:43:14.661Z,23.20
2023-05-17T07:45:43.697Z,23.00
2023-05-17T07:48:11.060Z,22.60
2023-05-17T07:50:38.905Z,22.60
2023-05-17T07:53:06.531Z,22.10
2023-05-17T07:55:37.137Z,22.50
2023-05-17T07:58:04.739Z,21.80
2023-05-17T08:00:33.230Z,22.20
2023-05-17T08:03:01.794Z,21.40
2023-05-17T08:05:29.633Z,21.30
2023-05-17T08:08:00.817Z,21.20
2023-05-17T08:10:28.969Z,21.20
2023-05-17T08:12:57.588Z,21.20
2023-05-17T08:15:27.022Z,21.40
2023-05-17T08:17:55.180Z,22.00
2023-05-17T08:20:23.847Z,21.80
2023-05-17T08:22:52.715Z,21.90
2023-05-17T08:25:25.213Z,21.80
2023-05-17T08:27:52.659Z,21.20
2023-05-17T08:30:29.035Z,21.80
2023-05-17T08:32:57.164Z,22.00
2023-05-17T08:35:28.391Z,22.40
2023-05-17T08:37:57.768Z,22.60
2023-05-17T08:40:29.191Z,22.30
2023-05-17T08:42:57.570Z,22.20
2023-05-17T08:45:27.296Z,22.00
2023-05-17T08:47:55.447Z,22.00
2023-05-17T08:50:25.152Z,21.90
2023-05-17T08:52:53.616Z,22.40
2023-05-17T08:55:21.070Z,22.00
2023-05-17T08:57:49.910Z,22.10
2023-05-17T09:00:21.688Z,21.50
2023-05-17T09:02:49.794Z,21.60
2023-05-17T09:05:17.491Z,22.20
2023-05-17T09:07:47.696Z,21.70
2023-05-17T09:10:15.052Z,21.60
2023-05-17T09:12:44.356Z,21.50
2023-05-17T09:15:19.480Z,21.50
2023-05-17T09:17:54.524Z,21.40
2023-05-17T09:20:34.146Z,21.40
2023-05-17T09:23:03.043Z,21.20
2023-05-17T09:25:32.242Z,21.30
2023-05-17T09:28:32.102Z,21.00
2023-05-17T09:31:07.358Z,20.30
2023-05-17T09:33:43.957Z,21.20
2023-05-17T09:36:22.020Z,20.70
2023-05-17T09:39:01.737Z,20.60
2023-05-17T09:41:40.609Z,20.60
2023-05-17T09:44:12.575Z,20.60
2023-05-17T09:46:46.134Z,20.70
2023-05-17T09:49:14.610Z,21.30
2023-05-17T09:51:49.488Z,21.10
2023-05-17T09:54:20.685Z,21.30
2023-05-17T09:56:54.978Z,21.40
2023-05-17T09:59:25.868Z,21.40
2023-05-17T10:01:54.350Z,21.30
2023-05-17T10:04:24.043Z,21.60
2023-05-17T10:06:53.352Z,21.30
2023-05-17T10:09:23.098Z,21.40
2023-05-17T10:11:52.868Z,21.40
2023-05-17T10:14:29.452Z,21.50
2023-05-17T10:17:23.874Z,21.50
2023-05-17T10:19:52.727Z,21.90
2023-05-17T10:22:23.884Z,21.60
2023-05-17T10:24:52.103Z,22.00
2023-05-17T10:27:21.518Z,21.60
2023-05-17T10:29:50.750Z,22.00
2023-05-17T10:32:22.992Z,21.60
2023-05-17T10:35:06.065Z,21.80
2023-05-17T10:37:37.618Z,22.30
2023-05-17T10:40:05.662Z,22.20
2023-05-17T10:42:33.851Z,21.90
2023-05-17T10:45:01.684Z,22.00
2023-05-17T10:47:34.059Z,21.80
2023-05-17T10:50:03.347Z,21.70
2023-05-17T10:52:30.812Z,22.00
2023-05-17T10:55:00.313Z,22.30
2023-05-17T10:57:50.725Z,21.80
2023-05-17T11:00:27.684Z,21.70
2023-05-17T11:03:17.613Z,21.90
2023-05-17T11:06:05.551Z,21.70
2023-05-17T11:08:33.812Z,21.80
2023-05-17T11:11:17.173Z,21.80
2023-05-17T11:13:55.020Z,21.90
2023-05-17T11:16:35.172Z,21.80
2023-05-17T11:19:11.348Z,21.80
2023-05-17T11:21:49.177Z,22.20
2023-05-17T11:24:28.706Z,21.80
2023-05-17T11:27:00.206Z,21.80
2023-05-17T11:29:33.470Z,22.20
2023-05-17T11:32:07.556Z,21.80
2023-05-17T11:34:35.365Z,21.80
2023-05-17T11:37:04.676Z,21.80
2023-05-17T11:39:32.535Z,21.70
2023-05-17T11:42:00.041Z,22.00
2023-05-17T11:44:35.080Z,21.90
2023-05-17T11:47:06.456Z,21.40
2023-05-17T11:49:37.895Z,21.30
2023-05-17T11:52:09.116Z,21.30
2023-05-17T11:54:40.758Z,21.80
2023-05-17T11:57:09.601Z,21.30
2023-05-17T11:59:40.108Z,21.00
2023-05-17T12:02:08.641Z,21.10
2023-05-17T12:04:38.066Z,21.40
2023-05-17T12:07:09.829Z,21.40
2023-05-17T12:09:38.511Z,21.00
2023-05-17T12:12:08.978Z,21.00
2023-05-17T12:15:03.207Z,21.00
2023-05-17T12:17:38.715Z,20.90
2023-05-17T12:20:10.482Z,20.90
2023-05-17T12:22:54.927Z,20.80
2023-05-17T12:25:25.919Z,20.70
2023-05-17T12:27:54.530Z,20.60
2023-05-17T12:30:23.828Z,20.60
2023-05-17T12:32:51.561Z,20.60
2023-05-17T12:35:19.565Z,20.60
2023-05-17T12:37:52.343Z,20.60
2023-05-17T12:40:20.470Z,20.60
2023-05-17T12:42:48.160Z,20.60
2023-05-17T12:45:16.058Z,21.00
2023-05-17T12:47:44.894Z,20.60
2023-05-17T12:50:12.454Z,21.10
2023-05-17T12:52:41.152Z,20.90
2023-05-17T12:55:13.613Z,20.50
2023-05-17T12:57:50.402Z,20.60
2023-05-17T13:00:19.773Z,20.50
2023-05-17T13:02:48.126Z,20.50
2023-05-17T13:05:21.772Z,20.50
2023-05-17T13:07:49.457Z,20.40
2023-05-17T13:10:27.857Z,20.70
2023-05-17T13:13:00.133Z,20.30
2023-05-17T13:15:32.467Z,20.40
2023-05-17T13:18:01.057Z,20.80
2023-05-17T13:20:29.906Z,20.10
2023-05-17T13:22:57.853Z,20.80
2023-05-17T13:25:26.370Z,20.10
2023-05-17T13:27:55.342Z,19.90
2023-05-17T13:30:23.190Z,20.00
2023-05-17T13:32:51.039Z,20.00
2023-05-17T13:35:18.811Z,20.00
2023-05-17T13:37:46.527Z,20.00
2023-05-17T13:40:14.880Z,20.00
2023-05-17T13:42:42.829Z,20.00
2023-05-17T13:45:12.418Z,20.00
2023-05-17T13:47:40.216Z,20.00
2023-05-17T13:50:09.786Z,20.50
2023-05-17T13:52:37.498Z,20.00
2023-05-17T13:55:05.778Z,20.00
2023-05-17T13:57:33.323Z,20.00
2023-05-17T14:00:00.934Z,20.40
2023-05-17T14:02:29.745Z,20.00
2023-05-17T14:04:57.898Z,20.40
2023-05-17T14:07:25.349Z,20.20
2023-05-17T14:10:02.453Z,20.00
2023-05-17T14:12:30.297Z,20.00
2023-05-17T14:14:58.273Z,20.00
2023-05-17T14:17:26.244Z,20.00
2023-05-17T14:19:54.056Z,20.10
2023-05-17T14:22:21.733Z,20.10
2023-05-17T14:24:49.342Z,20.20
2023-05-17T14:27:17.142Z,20.10
2023-05-17T14:29:44.974Z,20.10
2023-05-17T14:32:14.176Z,20.20
2023-05-17T14:34:42.603Z,20.60
2023-05-17T14:37:11.306Z,20.20
2023-05-17T14:39:39.505Z,20.50
2023-05-17T14:42:08.782Z,20.10
2023-05-17T14:44:40.063Z,20.50
2023-05-17T14:47:08.371Z,20.50
2023-05-17T14:54:17.124Z,20.10
2023-05-17T14:56:45.793Z,20.10
2023-05-17T14:59:17.517Z,20.00
2023-05-17T15:01:48.923Z,20.00
2023-05-17T15:04:17.711Z,19.90
2023-05-17T15:06:49.045Z,20.30
2023-05-17T15:09:21.235Z,20.30
2023-05-17T15:11:49.596Z,20.00
2023-05-17T15:17:43.437Z,20.00
2023-05-17T15:25:21.595Z,19.60
2023-05-17T15:27:49.315Z,19.90
2023-05-17T15:30:17.533Z,19.90
2023-05-17T15:32:45.153Z,19.90
2023-05-17T15:35:13.981Z,20.00
2023-05-17T15:37:41.849Z,20.00
2023-05-17T15:40:10.887Z,19.90
2023-05-17T15:42:38.298Z,20.00
2023-05-17T15:45:06.596Z,20.00
2023-05-17T15:50:04.918Z,19.90
2023-05-17T15:52:32.249Z,19.90
2023-05-17T15:54:59.618Z,19.90
2023-05-17T15:57:30.376Z,19.90
2023-05-17T15:59:57.660Z,19.90
2023-05-17T16:02:25.854Z,20.10
2023-05-17T16:04:53.308Z,19.90
2023-05-17T16:07:20.994Z,19.80
2023-05-17T16:09:48.310Z,19.90
2023-05-17T16:12:15.658Z,20.10
2023-05-17T16:14:44.196Z,19.90
2023-05-17T16:17:12.626Z,19.90
2023-05-17T16:19:40.048Z,19.90
2023-05-17T16:22:07.756Z,19.90
2023-05-17T16:24:35.279Z,19.90
2023-05-17T16:27:07.243Z,20.00
2023-05-17T16:29:39.785Z,19.90
2023-05-17T16:32:08.584Z,19.90
2023-05-17T16:34:36.357Z,20.00
2023-05-17T16:37:04.481Z,20.60
2023-05-17T16:39:32.655Z,19.90
2023-05-17T16:42:02.139Z,19.90
2023-05-17T16:44:30.053Z,19.90
2023-05-17T16:46:57.489Z,19.90
2023-05-17T16:49:25.320Z,19.80
2023-05-17T16:51:52.662Z,19.70
2023-05-17T16:54:20.025Z,19.70
2023-05-17T16:56:47.568Z,19.60
2023-05-17T16:59:16.128Z,19.70
2023-05-17T17:01:43.507Z,19.70
2023-05-17T17:04:10.987Z,19.70
2023-05-17T17:06:38.665Z,19.70
2023-05-17T17:09:08.299Z,19.80
2023-05-17T17:11:35.848Z,19.80
2023-05-17T17:14:03.348Z,20.10
2023-05-17T17:16:32.052Z,19.70
2023-05-17T17:18:59.611Z,19.70
2023-05-17T17:21:27.022Z,19.70
2023-05-17T17:23:54.434Z,19.70
2023-05-17T17:26:21.956Z,19.70
2023-05-17T17:28:49.323Z,19.70
2023-05-17T17:31:18.176Z,19.60
2023-05-17T17:33:45.520Z,19.60
2023-05-17T17:36:12.890Z,19.60
2023-05-17T17:38:40.209Z,19.60
2023-05-17T17:41:07.932Z,19.50
2023-05-17T17:43:36.576Z,19.50
2023-05-17T17:46:04.076Z,19.50
2023-05-17T17:48:31.547Z,19.50
2023-05-17T17:50:59.420Z,19.50
2023-05-17T17:53:28.710Z,19.50
2023-05-17T17:55:56.180Z,19.40
2023-05-17T17:58:23.469Z,19.40
2023-05-17T18:00:50.858Z,19.40
2023-05-17T18:03:18.267Z,19.30
2023-05-17T18:05:46.164Z,19.30
2023-05-17T18:08:14.112Z,19.80
2023-05-17T18:10:41.351Z,19.20
2023-05-17T18:13:09.128Z,19.20
2023-05-17T18:15:36.411Z,19.10
2023-05-17T18:18:03.900Z,19.10
2023-05-17T18:20:31.696Z,19.10
2023-05-17T18:22:59.202Z,19.00
2023-05-17T18:25:26.588Z,19.00
2023-05-17T18:27:54.386Z,18.90
2023-05-17T18:30:21.998Z,18.90
2023-05-17T18:32:49.494Z,18.90
2023-05-17T18:35:19.091Z,18.80
2023-05-17T18:37:57.067Z,18.80
2023-05-17T18:43:35.251Z,19.10
2023-05-17T18:46:02.842Z,18.60
2023-05-17T18:48:35.409Z,19.00
2023-05-17T18:51:03.093Z,18.50
2023-05-17T18:53:30.515Z,18.40
2023-05-17T18:56:04.297Z,18.40
2023-05-17T19:01:54.230Z,18.30
2023-05-17T19:04:22.494Z,18.30
2023-05-17T19:06:50.018Z,18.20
2023-05-17T19:09:17.717Z,18.10
2023-05-17T19:11:45.913Z,18.00
2023-05-17T19:14:19.138Z,17.90
2023-05-17T19:17:39.155Z,17.80
2023-05-17T19:20:15.670Z,17.80
2023-05-17T19:22:56.605Z,17.70
2023-05-17T19:29:44.553Z,17.60
2023-05-17T19:32:45.879Z,18.20
2023-05-17T19:35:44.750Z,17.50
2023-05-17T19:38:19.456Z,17.30
2023-05-17T19:40:47.012Z,17.70
2023-05-17T19:43:14.341Z,17.20
2023-05-17T19:45:42.944Z,17.50
2023-05-17T19:48:10.575Z,17.00
2023-05-17T19:50:38.088Z,17.00
2023-05-17T19:53:05.603Z,17.00
2023-05-17T19:55:34.236Z,17.00
2023-05-17T19:58:02.991Z,16.90
2023-05-17T20:00:32.591Z,16.90
2023-05-17T20:03:00.611Z,16.80
2023-05-17T20:05:28.331Z,16.80
2023-05-17T20:07:55.722Z,16.70
2023-05-17T20:10:23.203Z,16.70
2023-05-17T20:12:50.922Z,16.60
2023-05-17T20:15:18.476Z,16.60
2023-05-17T20:17:45.916Z,16.50
2023-05-17T20:20:13.522Z,16.50
2023-05-17T20:22:42.866Z,16.30
2023-05-17T20:25:11.183Z,16.30
2023-05-17T20:28:04.268Z,16.20
2023-05-17T20:31:55.168Z,16.20
2023-05-17T20:34:23.196Z,16.10
2023-05-17T20:36:50.766Z,16.00
2023-05-17T20:39:22.061Z,16.00
2023-05-17T20:41:49.877Z,16.00
2023-05-17T20:44:18.765Z,16.60
2023-05-17T20:46:46.693Z,15.80
2023-05-17T20:49:14.739Z,15.80
2023-05-17T20:51:42.564Z,15.70
2023-05-17T20:54:10.043Z,15.60
2023-05-17T20:56:38.865Z,16.30
2023-05-17T20:59:07.306Z,15.60
2023-05-17T21:01:34.848Z,15.50
2023-05-17T21:04:02.424Z,15.50
2023-05-17T21:06:32.521Z,16.20
2023-05-17T21:09:02.513Z,15.50
2023-05-17T21:11:30.208Z,15.90
2023-05-17T21:13:59.746Z,15.90
2023-05-17T21:16:27.433Z,15.90
2023-05-17T21:18:55.290Z,15.40
2023-05-17T21:21:22.707Z,15.40
2023-05-17T21:23:50.298Z,15.40
2023-05-17T21:26:17.916Z,15.80
2023-05-17T21:28:45.330Z,15.30
2023-05-17T21:31:13.306Z,15.20
2023-05-17T21:33:40.739Z,15.20
2023-05-17T21:36:08.247Z,15.20
2023-05-17T21:38:36.010Z,15.10
2023-05-17T21:41:03.455Z,15.00
2023-05-17T21:43:30.871Z,15.60
2023-05-17T21:45:58.256Z,15.00
2023-05-17T21:48:25.896Z,15.00
2023-05-17T21:50:53.305Z,14.90
2023-05-17T21:53:21.435Z,15.40
2023-05-17T21:56:01.300Z,14.90
2023-05-17T21:58:30.946Z,14.80
2023-05-17T22:00:58.506Z,14.90
2023-05-17T22:03:26.089Z,14.80
2023-05-17T22:05:53.615Z,14.80
2023-05-17T22:08:21.057Z,14.70
2023-05-17T22:10:50.171Z,14.70
2023-05-17T22:13:18.253Z,15.10
2023-05-17T22:15:45.812Z,14.60
2023-05-17T22:18:13.676Z,14.60
2023-05-17T22:20:41.147Z,14.50
2023-05-17T22:23:09.208Z,15.20
2023-05-17T22:25:37.340Z,15.10
2023-05-17T22:28:04.663Z,14.40
2023-05-17T22:30:32.339Z,14.30
2023-05-17T22:33:01.021Z,14.30
2023-05-17T22:35:28.495Z,14.20
2023-05-17T22:37:55.923Z,14.20
2023-05-17T22:40:23.487Z,14.10
2023-05-17T22:42:51.837Z,14.00
2023-05-17T22:45:20.381Z,14.00
2023-05-17T22:47:48.208Z,13.90
2023-05-17T22:50:15.857Z,13.90
2023-05-17T22:52:46.468Z,13.80
2023-05-17T22:55:16.057Z,13.80
2023-05-17T22:57:43.373Z,13.70
2023-05-17T23:00:11.362Z,13.80
2023-05-17T23:02:39.175Z,13.70
2023-05-17T23:05:07.580Z,14.40
2023-05-17T23:07:38.686Z,13.70
2023-05-17T23:10:08.259Z,13.70
2023-05-17T23:12:37.102Z,13.70
2023-05-17T23:15:06.427Z,13.60
2023-05-17T23:17:35.318Z,13.70
2023-05-17T23:20:09.594Z,13.60
2023-05-17T23:22:37.472Z,13.70
2023-05-17T23:25:06.022Z,13.60
2023-05-17T23:27:35.189Z,13.70
2023-05-17T23:30:04.343Z,13.60
2023-05-17T23:32:35.274Z,13.60
2023-05-17T23:35:05.153Z,13.50
2023-05-17T23:37:35.035Z,13.50
2023-05-17T23:40:07.165Z,13.40
2023-05-17T23:42:34.895Z,13.40
2023-05-17T23:45:03.101Z,13.40
2023-05-17T23:47:33.470Z,13.40
2023-05-17T23:50:03.030Z,13.30
2023-05-17T23:52:32.462Z,13.30
2023-05-17T23:55:01.497Z,13.60
2023-05-17T23:57:29.414Z,13.30
2023-05-17T23:59:56.800Z,13.30
